createdAt,value
2022-09-12T00:00:34.123Z,99.90
2022-09-12T00:03:23.346Z,99.90
2022-09-12T00:05:53.153Z,99.90
2022-09-12T00:08:22.428Z,99.90
2022-09-12T00:10:51.673Z,99.90
2022-09-12T00:13:23.148Z,99.90
2022-09-12T00:15:52.089Z,99.90
2022-09-12T00:18:21.786Z,99.90
2022-09-12T00:20:51.280Z,99.90
2022-09-12T00:23:20.549Z,99.90
2022-09-12T00:25:50.941Z,99.90
2022-09-12T00:28:21.833Z,99.90
2022-09-12T00:30:52.128Z,99.90
2022-09-12T00:33:21.401Z,99.90
2022-09-12T00:35:53.296Z,99.90
2022-09-12T00:38:23.290Z,99.90
2022-09-12T00:40:52.763Z,99.90
2022-09-12T00:43:39.181Z,99.90
2022-09-12T00:46:18.074Z,99.90
2022-09-12T00:48:54.106Z,99.90
2022-09-12T00:51:25.075Z,99.90
2022-09-12T00:53:56.906Z,99.90
2022-09-12T00:56:28.245Z,99.90
2022-09-12T00:59:03.569Z,99.90
2022-09-12T01:01:33.918Z,99.90
2022-09-12T01:04:04.667Z,99.90
2022-09-12T01:06:38.642Z,99.90
2022-09-12T01:09:08.853Z,99.90
2022-09-12T01:11:40.686Z,99.90
2022-09-12T01:14:11.566Z,99.90
2022-09-12T01:16:41.790Z,99.90
2022-09-12T01:19:35.981Z,99.90
2022-09-12T01:22:23.045Z,99.90
2022-09-12T01:25:01.416Z,99.90
2022-09-12T01:27:58.192Z,99.90
2022-09-12T01:30:46.510Z,99.90
2022-09-12T01:33:38.141Z,99.90
2022-09-12T01:36:34.797Z,99.90
2022-09-12T01:39:07.346Z,99.90
2022-09-12T01:41:47.288Z,99.90
2022-09-12T01:44:25.266Z,99.90
2022-09-12T01:47:01.135Z,99.90
2022-09-12T01:49:34.988Z,99.90
2022-09-12T01:52:09.716Z,99.90
2022-09-12T01:54:45.929Z,99.90
2022-09-12T01:57:21.974Z,99.90
2022-09-12T01:59:56.302Z,99.90
2022-09-12T02:02:32.729Z,99.90
2022-09-12T02:05:07.854Z,99.90
2022-09-12T02:07:41.242Z,99.90
2022-09-12T02:10:17.701Z,99.90
2022-09-12T02:12:52.379Z,99.90
2022-09-12T02:15:27.677Z,99.90
2022-09-12T02:18:02.040Z,99.90
2022-09-12T02:20:49.742Z,99.90
2022-09-12T02:23:24.882Z,99.90
2022-09-12T02:25:58.774Z,99.90
2022-09-12T02:28:32.325Z,99.90
2022-09-12T02:31:13.777Z,99.90
2022-09-12T02:33:51.765Z,99.90
2022-09-12T02:36:33.809Z,99.90
2022-09-12T02:39:03.432Z,99.90
2022-09-12T02:41:33.965Z,99.90
2022-09-12T02:44:04.387Z,99.90
2022-09-12T02:46:38.525Z,99.90
2022-09-12T02:49:09.979Z,99.90
2022-09-12T02:51:40.100Z,99.90
2022-09-12T02:54:10.982Z,99.90
2022-09-12T02:56:45.956Z,99.90
2022-09-12T02:59:19.082Z,99.90
2022-09-12T03:02:16.654Z,99.90
2022-09-12T03:05:20.192Z,99.90
2022-09-12T03:08:33.268Z,99.90
2022-09-12T03:11:21.120Z,99.90
2022-09-12T03:14:02.911Z,99.90
2022-09-12T03:16:41.527Z,99.90
2022-09-12T03:19:17.765Z,99.90
2022-09-12T03:21:59.879Z,99.90
2022-09-12T03:24:34.657Z,99.90
2022-09-12T03:27:10.637Z,99.90
2022-09-12T03:29:42.525Z,99.90
2022-09-12T03:32:12.270Z,99.90
2022-09-12T03:34:42.146Z,99.90
2022-09-12T03:37:13.064Z,99.90
2022-09-12T03:39:43.136Z,99.90
2022-09-12T03:42:12.560Z,99.90
2022-09-12T03:44:41.945Z,99.90
2022-09-12T03:47:11.966Z,99.90
2022-09-12T03:49:41.222Z,99.90
2022-09-12T03:52:12.432Z,99.90
2022-09-12T03:54:42.176Z,99.90
2022-09-12T03:57:11.701Z,99.90
2022-09-12T03:59:41.053Z,99.90
2022-09-12T04:02:13.447Z,99.90
2022-09-12T04:04:44.181Z,99.90
2022-09-12T04:07:16.165Z,99.90
2022-09-12T04:09:45.621Z,99.90
2022-09-12T04:12:15.894Z,99.90
2022-09-12T04:14:45.205Z,99.90
2022-09-12T04:17:14.562Z,99.90
2022-09-12T04:19:44.262Z,99.90
2022-09-12T04:22:15.461Z,99.90
2022-09-12T04:24:45.427Z,99.90
2022-09-12T04:27:14.726Z,99.90
2022-09-12T04:29:44.165Z,99.90
2022-09-12T04:32:15.393Z,99.90
2022-09-12T04:34:44.673Z,99.90
2022-09-12T04:37:15.864Z,99.90
2022-09-12T04:39:45.637Z,99.90
2022-09-12T04:42:15.065Z,99.90
2022-09-12T04:44:47.338Z,99.90
2022-09-12T04:47:17.095Z,99.90
2022-09-12T04:49:46.940Z,99.90
2022-09-12T04:52:17.858Z,99.90
2022-09-12T04:54:48.146Z,99.90
2022-09-12T04:57:17.736Z,99.90
2022-09-12T04:59:47.280Z,99.90
2022-09-12T05:02:16.832Z,99.90
2022-09-12T05:04:47.187Z,99.90
2022-09-12T05:07:17.930Z,99.90
2022-09-12T05:09:48.035Z,99.90
2022-09-12T05:12:17.448Z,99.90
2022-09-12T05:14:46.853Z,99.90
2022-09-12T05:17:17.073Z,99.90
2022-09-12T05:19:46.370Z,99.90
2022-09-12T05:22:17.201Z,99.90
2022-09-12T05:24:58.250Z,99.90
2022-09-12T05:27:27.668Z,99.90
2022-09-12T05:29:57.718Z,99.90
2022-09-12T05:32:27.003Z,99.90
2022-09-12T05:34:56.843Z,99.90
2022-09-12T05:37:27.959Z,99.90
2022-09-12T05:39:59.591Z,99.90
2022-09-12T05:42:32.161Z,99.90
2022-09-12T05:45:01.601Z,99.90
2022-09-12T05:47:31.578Z,99.90
2022-09-12T05:50:00.824Z,99.90
2022-09-12T05:52:31.631Z,99.90
2022-09-12T05:55:01.667Z,99.90
2022-09-12T05:57:31.211Z,99.90
2022-09-12T06:00:00.442Z,99.90
2022-09-12T06:02:30.186Z,99.90
2022-09-12T06:04:59.476Z,99.90
2022-09-12T06:07:29.186Z,99.90
2022-09-12T06:10:00.577Z,99.90
2022-09-12T06:12:30.722Z,99.90
2022-09-12T06:15:00.385Z,99.90
2022-09-12T06:17:29.823Z,99.90
2022-09-12T06:19:59.061Z,99.90
2022-09-12T06:22:28.573Z,99.90
2022-09-12T06:24:58.132Z,99.90
2022-09-12T06:27:29.151Z,99.90
2022-09-12T06:29:59.744Z,99.90
2022-09-12T06:32:32.154Z,99.90
2022-09-12T06:35:02.096Z,99.90
2022-09-12T06:37:31.517Z,99.90
2022-09-12T06:40:02.053Z,99.90
2022-09-12T06:42:33.834Z,99.90
2022-09-12T06:45:03.478Z,99.90
2022-09-12T06:47:33.794Z,99.90
2022-09-12T06:50:03.393Z,99.90
2022-09-12T06:52:32.865Z,99.90
2022-09-12T06:55:02.867Z,99.90
2022-09-12T06:57:36.685Z,99.90
2022-09-12T07:00:07.226Z,99.90
2022-09-12T07:02:36.521Z,99.90
2022-09-12T07:05:06.271Z,99.90
2022-09-12T07:07:36.293Z,99.90
2022-09-12T07:10:07.168Z,99.90
2022-09-12T07:12:38.477Z,99.90
2022-09-12T07:15:08.474Z,99.90
2022-09-12T07:17:38.334Z,99.90
2022-09-12T07:20:09.065Z,99.90
2022-09-12T07:22:39.164Z,99.90
2022-09-12T07:25:09.222Z,99.90
2022-09-12T07:27:40.105Z,99.90
2022-09-12T07:30:10.202Z,99.90
2022-09-12T07:32:39.947Z,99.90
2022-09-12T07:35:09.924Z,99.90
2022-09-12T07:37:39.588Z,99.90
2022-09-12T07:40:10.655Z,99.90
2022-09-12T07:42:41.428Z,99.90
2022-09-12T07:45:13.216Z,99.90
2022-09-12T07:47:42.744Z,99.90
2022-09-12T07:50:12.582Z,99.90
2022-09-12T07:52:41.828Z,99.90
2022-09-12T07:55:11.326Z,99.90
2022-09-12T07:57:42.741Z,99.90
2022-09-12T08:00:13.000Z,99.90
2022-09-12T08:02:42.962Z,99.90
2022-09-12T08:05:12.534Z,99.90
2022-09-12T08:07:41.797Z,99.90
2022-09-12T08:10:12.211Z,99.90
2022-09-12T08:12:43.109Z,99.90
2022-09-12T08:15:13.473Z,99.90
2022-09-12T08:17:43.328Z,99.90
2022-09-12T08:20:12.787Z,99.90
2022-09-12T08:22:42.661Z,99.90
2022-09-12T08:25:12.316Z,99.90
2022-09-12T08:27:46.235Z,99.90
2022-09-12T08:30:16.678Z,99.90
2022-09-12T08:32:45.990Z,99.90
2022-09-12T08:35:15.630Z,99.90
2022-09-12T08:37:45.276Z,99.90
2022-09-12T08:40:19.259Z,99.90
2022-09-12T08:42:59.386Z,99.90
2022-09-12T08:45:35.016Z,99.90
2022-09-12T08:48:07.916Z,99.90
2022-09-12T08:50:37.889Z,99.90
2022-09-12T08:53:14.693Z,99.90
2022-09-12T08:55:46.252Z,99.90
2022-09-12T08:58:19.947Z,99.90
2022-09-12T09:00:59.809Z,99.90
2022-09-12T09:03:56.970Z,99.90
2022-09-12T09:06:57.021Z,99.90
2022-09-12T09:09:39.941Z,99.90
2022-09-12T09:12:18.633Z,99.90
2022-09-12T09:15:03.408Z,99.90
2022-09-12T09:17:36.988Z,99.90
2022-09-12T09:20:16.559Z,99.90
2022-09-12T09:22:49.497Z,99.90
2022-09-12T09:25:24.896Z,99.90
2022-09-12T09:28:01.301Z,99.90
2022-09-12T09:30:33.385Z,99.90
2022-09-12T09:33:04.900Z,99.90
2022-09-12T09:35:44.947Z,99.90
2022-09-12T09:38:28.642Z,99.90
2022-09-12T09:41:13.154Z,99.90
2022-09-12T09:43:42.446Z,99.90
2022-09-12T09:46:14.438Z,99.90
2022-09-12T09:48:47.564Z,99.90
2022-09-12T09:51:21.673Z,99.90
2022-09-12T09:53:54.505Z,99.90
2022-09-12T09:56:30.948Z,99.90
2022-09-12T09:59:11.949Z,99.90
2022-09-12T10:01:49.673Z,99.90
2022-09-12T10:04:24.277Z,99.90
2022-09-12T10:06:56.242Z,99.90
2022-09-12T10:09:28.652Z,99.90
2022-09-12T10:11:59.242Z,99.90
2022-09-12T10:14:39.929Z,99.90
2022-09-12T10:17:34.132Z,99.90
2022-09-12T10:20:22.009Z,99.90
2022-09-12T10:22:52.121Z,99.90
2022-09-12T10:25:22.233Z,99.90
2022-09-12T10:27:58.095Z,99.90
2022-09-12T10:30:29.620Z,99.90
2022-09-12T10:33:09.349Z,99.90
2022-09-12T10:35:47.791Z,99.90
2022-09-12T10:38:24.093Z,99.90
2022-09-12T10:41:00.435Z,99.90
2022-09-12T10:43:31.977Z,99.90
2022-09-12T10:46:23.166Z,99.90
2022-09-12T10:49:14.161Z,99.90
2022-09-12T10:51:43.770Z,99.90
2022-09-12T10:54:14.192Z,99.90
2022-09-12T10:56:48.893Z,99.90
2022-09-12T10:59:33.297Z,99.90
2022-09-12T11:02:14.752Z,99.60
2022-09-12T11:04:57.732Z,97.50
2022-09-12T11:07:37.230Z,96.70
2022-09-12T11:10:13.356Z,95.50
2022-09-12T11:12:50.097Z,94.60
2022-09-12T11:15:37.455Z,93.50
2022-09-12T11:18:16.549Z,94.60
2022-09-12T11:21:04.981Z,95.30
2022-09-12T11:23:59.581Z,95.10
2022-09-12T11:26:42.463Z,94.30
2022-09-12T11:29:21.421Z,93.70
2022-09-12T11:32:16.222Z,93.30
2022-09-12T11:35:01.411Z,93.80
2022-09-12T11:38:01.366Z,93.60
2022-09-12T11:40:36.097Z,94.70
2022-09-12T11:43:13.081Z,94.80
2022-09-12T11:45:45.573Z,94.30
2022-09-12T11:48:33.880Z,93.90
2022-09-12T11:51:07.408Z,92.70
2022-09-12T11:53:42.745Z,91.60
2022-09-12T11:56:17.474Z,92.30
2022-09-12T11:59:03.278Z,93.60
2022-09-12T12:01:43.865Z,93.40
2022-09-12T12:04:26.166Z,93.20
2022-09-12T12:07:04.061Z,92.00
2022-09-12T12:09:48.527Z,92.20
2022-09-12T12:12:20.992Z,91.50
2022-09-12T12:14:53.834Z,90.50
2022-09-12T12:17:25.465Z,89.90
2022-09-12T12:20:08.192Z,87.70
2022-09-12T12:22:38.425Z,89.80
2022-09-12T12:25:29.741Z,91.00
2022-09-12T12:28:02.092Z,91.30
2022-09-12T12:31:03.568Z,92.80
2022-09-12T12:34:09.501Z,91.70
2022-09-12T12:36:43.615Z,91.00
2022-09-12T12:40:03.311Z,90.70
2022-09-12T12:43:00.542Z,90.90
2022-09-12T12:45:50.140Z,90.10
2022-09-12T12:48:21.117Z,90.10
2022-09-12T12:50:50.548Z,90.40
2022-09-12T12:53:23.878Z,90.20
2022-09-12T12:55:56.944Z,90.40
2022-09-12T12:58:35.054Z,90.00
2022-09-12T13:01:16.531Z,88.10
2022-09-12T13:03:48.510Z,88.00
2022-09-12T13:06:33.269Z,89.70
2022-09-12T13:09:06.081Z,90.70
2022-09-12T13:11:38.714Z,90.20
2022-09-12T13:14:31.473Z,90.60
2022-09-12T13:17:04.416Z,90.90
2022-09-12T13:19:38.227Z,90.80
2022-09-12T13:22:09.903Z,91.00
2022-09-12T13:24:45.212Z,90.80
2022-09-12T13:27:21.077Z,90.60
2022-09-12T13:29:52.397Z,89.80
2022-09-12T13:32:22.037Z,88.50
2022-09-12T13:35:09.577Z,88.30
2022-09-12T13:37:51.507Z,89.60
2022-09-12T13:40:32.846Z,89.50
2022-09-12T13:43:17.186Z,89.90
2022-09-12T13:45:49.365Z,90.20
2022-09-12T13:48:22.319Z,89.60
2022-09-12T13:50:54.047Z,89.10
2022-09-12T13:53:27.470Z,87.70
2022-09-12T13:55:59.695Z,88.60
2022-09-12T13:58:30.962Z,88.00
2022-09-12T14:01:08.772Z,87.60
2022-09-12T14:04:00.172Z,87.90
2022-09-12T14:06:29.797Z,88.30
2022-09-12T14:09:01.653Z,88.40
2022-09-12T14:11:34.135Z,87.70
2022-09-12T14:14:08.131Z,87.70
2022-09-12T14:16:42.277Z,89.00
2022-09-12T14:19:13.239Z,88.20
2022-09-12T14:21:42.990Z,88.00
2022-09-12T14:24:15.157Z,86.80
2022-09-12T14:26:46.784Z,87.50
2022-09-12T14:29:18.217Z,87.80
2022-09-12T14:31:49.010Z,89.00
2022-09-12T14:34:20.366Z,89.10
2022-09-12T14:36:51.836Z,89.80
2022-09-12T14:39:26.444Z,89.40
2022-09-12T14:42:06.011Z,90.10
2022-09-12T14:44:37.214Z,90.30
2022-09-12T14:47:24.361Z,90.20
2022-09-12T14:49:55.008Z,89.80
2022-09-12T14:52:29.755Z,90.30
2022-09-12T14:55:02.049Z,90.70
2022-09-12T14:57:42.670Z,91.00
2022-09-12T15:00:22.818Z,90.90
2022-09-12T15:02:54.773Z,90.90
2022-09-12T15:05:27.654Z,90.60
2022-09-12T15:08:00.120Z,90.60
2022-09-12T15:10:33.325Z,90.70
2022-09-12T15:13:22.722Z,90.20
2022-09-12T15:15:54.344Z,90.20
2022-09-12T15:18:27.738Z,91.00
2022-09-12T15:20:59.268Z,91.70
2022-09-12T15:23:43.108Z,92.10
2022-09-12T15:26:15.132Z,92.50
2022-09-12T15:28:45.050Z,92.60
2022-09-12T15:31:23.802Z,93.20
2022-09-12T15:33:55.501Z,93.60
2022-09-12T15:36:26.345Z,94.10
2022-09-12T15:38:56.210Z,94.50
2022-09-12T15:41:32.604Z,94.60
2022-09-12T15:44:02.123Z,94.90
2022-09-12T15:46:32.223Z,95.00
2022-09-12T15:49:03.097Z,95.20
2022-09-12T15:51:34.528Z,95.10
2022-09-12T15:54:05.401Z,95.50
2022-09-12T15:56:35.248Z,95.50
2022-09-12T15:59:05.337Z,95.60
2022-09-12T16:01:34.800Z,96.40
2022-09-12T16:04:06.070Z,96.40
2022-09-12T16:06:37.458Z,97.10
2022-09-12T16:09:07.149Z,97.80
2022-09-12T16:11:36.595Z,99.10
2022-09-12T16:14:07.450Z,99.90
2022-09-12T16:16:37.638Z,99.90
2022-09-12T16:19:08.755Z,99.90
2022-09-12T16:21:38.501Z,99.90
2022-09-12T16:24:08.099Z,99.90
2022-09-12T16:26:37.666Z,99.90
2022-09-12T16:29:07.549Z,99.90
2022-09-12T16:31:38.629Z,99.90
2022-09-12T16:34:09.400Z,99.90
2022-09-12T16:36:39.478Z,99.90
2022-09-12T16:39:09.082Z,99.90
2022-09-12T16:41:38.453Z,99.90
2022-09-12T16:44:08.306Z,99.90
2022-09-12T16:46:38.010Z,99.90
2022-09-12T16:49:09.038Z,99.90
2022-09-12T16:51:39.011Z,99.90
2022-09-12T16:54:08.489Z,99.90
2022-09-12T16:56:37.949Z,99.90
2022-09-12T16:59:07.512Z,99.90
2022-09-12T17:01:37.299Z,99.90
2022-09-12T17:04:07.011Z,99.90
2022-09-12T17:06:38.157Z,99.90
2022-09-12T17:09:07.831Z,99.90
2022-09-12T17:11:39.666Z,99.90
2022-09-12T17:14:10.636Z,99.90
2022-09-12T17:16:51.449Z,99.90
2022-09-12T17:19:23.521Z,99.90
2022-09-12T17:21:54.814Z,99.90
2022-09-12T17:24:24.556Z,99.90
2022-09-12T17:26:54.516Z,99.90
2022-09-12T17:29:23.765Z,99.90
2022-09-12T17:31:53.049Z,99.90
2022-09-12T17:34:23.722Z,99.90
2022-09-12T17:36:54.562Z,99.90
2022-09-12T17:39:24.410Z,99.90
2022-09-12T17:41:54.963Z,99.90
2022-09-12T17:44:27.570Z,99.90
2022-09-12T17:46:56.974Z,99.90
2022-09-12T17:49:26.649Z,99.90
2022-09-12T17:51:58.261Z,99.90
2022-09-12T17:54:28.280Z,99.90
2022-09-12T17:56:57.535Z,99.90
2022-09-12T17:59:27.046Z,99.90
2022-09-12T18:02:14.607Z,99.90
2022-09-12T18:04:46.541Z,99.90
2022-09-12T18:07:19.461Z,99.90
2022-09-12T18:09:49.816Z,99.90
2022-09-12T18:12:20.499Z,99.90
2022-09-12T18:14:49.790Z,99.90
2022-09-12T18:17:19.138Z,99.90
2022-09-12T18:19:53.380Z,99.90
2022-09-12T18:22:24.442Z,99.90
2022-09-12T18:24:54.146Z,99.90
2022-09-12T18:27:23.536Z,99.90
2022-09-12T18:30:17.287Z,99.90
2022-09-12T18:32:42.835Z,99.90
2022-09-12T18:35:12.177Z,99.90
2022-09-12T18:37:44.234Z,99.90
2022-09-12T18:40:14.125Z,99.90
2022-09-12T18:42:43.849Z,99.90
2022-09-12T18:45:13.246Z,99.90
2022-09-12T18:47:42.939Z,99.90
2022-09-12T18:50:12.807Z,99.90
2022-09-12T18:52:43.613Z,99.90
2022-09-12T18:55:14.033Z,99.90
2022-09-12T18:57:43.457Z,99.90
2022-09-12T19:00:13.965Z,99.90
2022-09-12T19:02:43.684Z,99.90
2022-09-12T19:05:14.294Z,99.90
2022-09-12T19:07:45.459Z,99.90
2022-09-12T19:10:15.714Z,99.90
2022-09-12T19:12:45.531Z,99.90
2022-09-12T19:15:14.905Z,99.90
2022-09-12T19:17:44.962Z,99.90
2022-09-12T19:20:14.514Z,99.90
2022-09-12T19:22:45.402Z,99.90
2022-09-12T19:25:15.226Z,99.90
2022-09-12T19:27:44.522Z,99.90
2022-09-12T19:30:14.410Z,99.90
2022-09-12T19:32:45.613Z,99.90
2022-09-12T19:35:15.365Z,99.90
2022-09-12T19:37:47.147Z,99.90
2022-09-12T19:40:16.533Z,99.90
2022-09-12T19:42:46.842Z,99.90
2022-09-12T19:45:16.713Z,99.90
2022-09-12T19:47:46.272Z,99.90
2022-09-12T19:50:16.468Z,99.90
2022-09-12T19:52:47.413Z,99.90
2022-09-12T19:55:17.193Z,99.90
2022-09-12T19:57:46.789Z,99.90
2022-09-12T20:00:17.139Z,99.90
2022-09-12T20:02:52.160Z,99.90
2022-09-12T20:05:21.786Z,99.90
2022-09-12T20:07:53.477Z,99.90
2022-09-12T20:10:22.773Z,99.90
2022-09-12T20:12:52.678Z,99.90
2022-09-12T20:15:21.920Z,99.90
2022-09-12T20:17:56.041Z,99.90
2022-09-12T20:20:26.967Z,99.90
2022-09-12T20:22:57.817Z,99.90
2022-09-12T20:25:27.882Z,99.90
2022-09-12T20:28:00.162Z,99.90
2022-09-12T20:30:30.227Z,99.90
2022-09-12T20:32:59.796Z,99.90
2022-09-12T20:35:29.112Z,99.90
2022-09-12T20:38:01.720Z,99.90
2022-09-12T20:40:31.396Z,99.90
2022-09-12T20:43:01.062Z,99.90
2022-09-12T20:45:30.333Z,99.90
2022-09-12T20:47:59.964Z,99.90
2022-09-12T20:50:29.741Z,99.90
2022-09-12T20:53:01.945Z,99.90
2022-09-12T20:55:31.752Z,99.90
2022-09-12T20:58:01.071Z,99.90
2022-09-12T21:00:30.814Z,99.90
2022-09-12T21:03:00.377Z,99.90
2022-09-12T21:05:30.009Z,99.90
2022-09-12T21:08:01.610Z,99.90
2022-09-12T21:10:32.520Z,99.90
2022-09-12T21:13:01.957Z,99.90
2022-09-12T21:15:32.118Z,99.90
2022-09-12T21:18:01.391Z,99.90
2022-09-12T21:20:30.809Z,99.90
2022-09-12T21:23:02.193Z,99.90
2022-09-12T21:25:31.408Z,99.90
2022-09-12T21:28:01.622Z,99.90
2022-09-12T21:30:30.968Z,99.90
2022-09-12T21:33:00.518Z,99.90
2022-09-12T21:35:30.462Z,99.90
2022-09-12T21:38:01.618Z,99.90
2022-09-12T21:40:31.599Z,99.90
2022-09-12T21:43:01.506Z,99.90
2022-09-12T21:45:31.398Z,99.90
2022-09-12T21:48:01.151Z,99.90
2022-09-12T21:50:30.593Z,99.90
2022-09-12T21:53:01.836Z,99.90
2022-09-12T21:55:31.502Z,99.90
2022-09-12T21:58:00.931Z,99.90
2022-09-12T22:00:30.307Z,99.90
2022-09-12T22:03:00.396Z,99.90
2022-09-12T22:05:32.947Z,99.90
2022-09-12T22:08:05.108Z,99.90
2022-09-12T22:10:34.558Z,99.90
2022-09-12T22:13:04.433Z,99.90
2022-09-12T22:15:40.461Z,99.90
2022-09-12T22:18:10.978Z,99.90
2022-09-12T22:20:40.581Z,99.90
2022-09-12T22:23:30.433Z,99.90
2022-09-12T22:26:02.265Z,99.90
2022-09-12T22:28:32.529Z,99.90
2022-09-12T22:31:02.409Z,99.90
2022-09-12T22:33:31.860Z,99.90
2022-09-12T22:36:01.303Z,99.90
2022-09-12T22:38:32.941Z,99.90
2022-09-12T22:41:05.693Z,99.90
2022-09-12T22:43:36.264Z,99.90
2022-09-12T22:46:08.691Z,99.90
2022-09-12T22:48:38.468Z,99.90
2022-09-12T22:51:08.440Z,99.90
2022-09-12T22:53:39.814Z,99.90
2022-09-12T22:56:10.445Z,99.90
2022-09-12T22:58:41.925Z,99.90
2022-09-12T23:01:11.944Z,99.90
2022-09-12T23:03:42.266Z,99.90
2022-09-12T23:06:12.262Z,99.90
2022-09-12T23:08:43.705Z,99.90
2022-09-12T23:11:14.397Z,99.90
2022-09-12T23:13:46.547Z,99.90
2022-09-12T23:16:17.881Z,99.90
2022-09-12T23:18:47.652Z,99.90
2022-09-12T23:21:18.943Z,99.90
2022-09-12T23:23:50.277Z,99.90
2022-09-12T23:26:21.078Z,99.90
2022-09-12T23:28:53.040Z,99.90
2022-09-12T23:31:23.730Z,99.90
2022-09-12T23:33:54.933Z,99.90
2022-09-12T23:36:25.389Z,99.90
2022-09-12T23:38:56.869Z,99.90
2022-09-12T23:41:26.449Z,99.90
2022-09-12T23:43:56.778Z,99.90
2022-09-12T23:46:26.284Z,99.90
2022-09-12T23:48:55.713Z,99.90
2022-09-12T23:51:25.698Z,99.90
2022-09-12T23:53:56.749Z,99.90
2022-09-12T23:56:26.772Z,99.90
2022-09-12T23:58:56.314Z,99.90
